Weather History for Danville, IL

Change the Weather History Date:

Wednesday, November 13, 2013

  Actual Average (KLAF) Record (KLAF)
Temperature  
Mean Temperature 26 °F 44 °F  
Max Temperature 37 °F 53 °F 70 °F (1999)
Min Temperature 15 °F 36 °F 9 °F (1986)
Degree Days  
Heating Degree Days 39 21  
Month to date heating degree days 239  
Since 1 July heating degree days 673  
Cooling Degree Days 0 0  
Month to date cooling degree days 0  
Year to date cooling degree days 982  
Moisture  
Dew Point 19 °F    
Average Humidity 72    
Maximum Humidity 93    
Minimum Humidity 51    
Precipitation  
Precipitation 0.00 in 0.11 in 1.75 in (1959)
Month to date precipitation 1.22  
Year to date precipitation 32.32  
Sea Level Pressure  
Sea Level Pressure 30.47 in    
Wind  
Wind Speed 9 mph (SW)    
Max Wind Speed 20 mph    
Max Gust Speed 25 mph    
Visibility 10 miles    
Events      
T = Trace of Precipitation, MM = Missing Value Source: NWS Daily Summary

Daily Weather History Graph

Daily Weather History Graph

Search for Another Location

Airport:

Trip Planner

Search our weather history database for the weather conditions in past years. The results will help you decide how hot, cold, wet, or windy it might be!

Date:

Astronomy

Nov. 13, 2013 Rise Set
Actual Time 6:33 AM CST 4:34 PM CST
Civil Twilight 6:04 AM CST 5:03 PM CST
Nautical Twilight 5:32 AM CST 5:36 PM CST
Astronomical Twilight 5:00 AM CST 6:08 PM CST
Moon 2:22 PM CST (11/13) 2:26 AM CST (11/13)
Length of Visible Light 10h 59m
Length of Day
10h 01m
Waxing Gibbous, 85% of the Moon is Illuminated
Nov 13
Waxing Gibbous
Nov 17
Full
Nov 25
Last Quarter
Dec 2
New
Dec 9
First Quarter

Hourly Weather History & Observations

Time (CST) Temp. Windchill Dew Point Humidity Pressure Visibility Wind Dir Wind Speed Gust Speed Precip Events Conditions
12:15 AM 20.7 °F 11.0 °F 17.6 °F 88% 30.61 in 10.0 mi WNW 8.1 mph - N/A   Clear
12:35 AM 20.8 °F 11.2 °F 17.6 °F 87% 30.61 in 10.0 mi WNW 8.1 mph - N/A   Clear
12:55 AM 20.3 °F 12.5 °F 16.9 °F 87% 30.61 in 10.0 mi WNW 5.8 mph - N/A   Clear
1:15 AM 19.0 °F 11.1 °F 15.8 °F 87% 30.61 in 10.0 mi West 5.8 mph - N/A   Clear
1:35 AM 18.3 °F 10.2 °F 15.6 °F 89% 30.61 in 10.0 mi West 5.8 mph - N/A   Clear
1:55 AM 17.8 °F 10.9 °F 15.4 °F 91% 30.60 in 10.0 mi West 4.6 mph - N/A   Clear
2:15 AM 16.7 °F 9.6 °F 14.2 °F 90% 30.60 in 10.0 mi West 4.6 mph - N/A   Clear
2:35 AM 16.9 °F 11.5 °F 14.5 °F 91% 30.59 in 10.0 mi SW 3.5 mph - N/A   Clear
2:55 AM 17.2 °F 10.2 °F 14.7 °F 90% 30.59 in 10.0 mi West 4.6 mph - N/A   Clear
3:15 AM 16.7 °F 11.2 °F 14.5 °F 91% 30.60 in 10.0 mi West 3.5 mph - N/A   Clear
3:35 AM 15.8 °F - 13.5 °F 90% 30.60 in 10.0 mi Calm Calm - N/A   Clear
3:55 AM 16.5 °F 11.0 °F 14.0 °F 90% 30.60 in 10.0 mi WSW 3.5 mph - N/A   Clear
4:15 AM 16.0 °F 10.4 °F 13.3 °F 89% 30.60 in 10.0 mi SW 3.5 mph - N/A   Clear
4:35 AM 15.8 °F 10.2 °F 13.1 °F 89% 30.60 in 10.0 mi WSW 3.5 mph - N/A   Clear
4:55 AM 15.8 °F 10.2 °F 13.5 °F 90% 30.60 in 10.0 mi SW 3.5 mph - N/A   Clear
5:15 AM 15.8 °F - 13.5 °F 90% 30.60 in 10.0 mi Calm Calm - N/A   Clear
5:35 AM 15.4 °F 8.1 °F 13.1 °F 90% 30.59 in 10.0 mi SW 4.6 mph - N/A   Clear
5:55 AM 15.6 °F 8.3 °F 13.5 °F 91% 30.59 in 10.0 mi SW 4.6 mph - N/A   Clear
6:15 AM 15.6 °F 10.0 °F 13.1 °F 90% 30.59 in 10.0 mi SW 3.5 mph - N/A   Clear
6:35 AM 15.8 °F 10.2 °F 13.6 °F 91% 30.59 in 10.0 mi SW 3.5 mph - N/A   Clear
6:55 AM 15.8 °F 10.2 °F 14.0 °F 93% 30.59 in 10.0 mi SSW 3.5 mph - N/A   Clear
7:15 AM 17.6 °F - 16.0 °F 93% 30.59 in 10.0 mi Calm Calm - N/A   Clear
7:35 AM 20.5 °F 11.7 °F 18.5 °F 92% 30.59 in 10.0 mi SW 6.9 mph - N/A   Clear
7:55 AM 21.9 °F 13.4 °F 19.4 °F 90% 30.59 in 10.0 mi SW 6.9 mph - N/A   Clear
8:15 AM 23.5 °F 19.1 °F 20.7 °F 89% 30.60 in 10.0 mi SW 3.5 mph - N/A   Clear
8:35 AM 25.0 °F 17.1 °F 21.7 °F 87% 30.59 in 10.0 mi SW 6.9 mph - N/A   Clear
8:55 AM 26.6 °F 18.2 °F 23.0 °F 86% 30.58 in 10.0 mi SW 8.1 mph - N/A   Clear
9:15 AM 27.7 °F 18.8 °F 23.7 °F 85% 30.58 in 10.0 mi SW 9.2 mph - N/A   Clear
9:35 AM 29.1 °F 20.0 °F 23.9 °F 81% 30.58 in 10.0 mi SW 10.4 mph - N/A   Clear
9:55 AM 30.2 °F 20.8 °F 22.1 °F 72% 30.58 in 10.0 mi SW 11.5 mph - N/A   Clear
10:15 AM 31.1 °F 22.4 °F 21.4 °F 67% 30.57 in 10.0 mi SW 10.4 mph - N/A   Clear
10:35 AM 32.0 °F 23.0 °F 21.4 °F 65% 30.56 in 10.0 mi SW 11.5 mph - N/A   Clear
10:55 AM 32.5 °F 23.2 °F 22.1 °F 65% 30.55 in 10.0 mi SW 12.7 mph - N/A   Clear
11:15 AM 32.9 °F 23.7 °F 21.7 °F 64% 30.54 in 10.0 mi SSW 12.7 mph - N/A   Clear
11:35 AM 33.3 °F 23.7 °F 22.1 °F 64% 30.52 in 10.0 mi SSW 13.8 mph - N/A   Clear
11:55 AM 33.6 °F 24.1 °F 21.7 °F 62% 30.51 in 10.0 mi SW 13.8 mph - N/A   Clear
12:15 PM 35.2 °F 26.2 °F 24.1 °F 64% 30.49 in 10.0 mi SSW 13.8 mph 19.6 mph N/A   Clear
12:35 PM 35.8 °F 26.9 °F 22.6 °F 59% 30.48 in 10.0 mi SSW 13.8 mph 18.4 mph N/A   Clear
12:55 PM 36.1 °F 25.9 °F 22.5 °F 58% 30.47 in 10.0 mi SW 18.4 mph 21.9 mph N/A   Clear
1:15 PM 36.7 °F 26.6 °F 21.9 °F 55% 30.46 in 10.0 mi SSW 18.4 mph - N/A   Clear
1:35 PM 36.5 °F 26.7 °F 21.6 °F 55% 30.45 in 10.0 mi SW 17.3 mph 25.3 mph N/A   Clear
1:55 PM 37.6 °F 28.1 °F 22.6 °F 55% 30.44 in 10.0 mi SSW 17.3 mph 20.7 mph N/A   Clear
2:15 PM 37.0 °F 26.7 °F 21.2 °F 53% 30.42 in 10.0 mi SW 19.6 mph - N/A   Clear
2:35 PM 37.8 °F 28.6 °F 22.1 °F 53% 30.42 in 10.0 mi SSW 16.1 mph 19.6 mph N/A   Clear
2:55 PM 37.8 °F 28.0 °F 21.0 °F 51% 30.42 in 10.0 mi SSW 18.4 mph 21.9 mph N/A   Clear
3:15 PM 37.4 °F 27.5 °F 20.8 °F 51% 30.40 in 10.0 mi SSW 18.4 mph 24.2 mph N/A   Clear
3:35 PM 36.7 °F 27.2 °F 20.1 °F 51% 30.40 in 10.0 mi SSW 16.1 mph 21.9 mph N/A   Clear
3:55 PM 36.1 °F 26.9 °F 20.5 °F 53% 30.39 in 10.0 mi SSW 15.0 mph 19.6 mph N/A   Clear
4:15 PM 34.7 °F 25.5 °F 20.3 °F 56% 30.38 in 10.0 mi SSW 13.8 mph 21.9 mph N/A   Clear
4:35 PM 33.4 °F 23.5 °F 20.3 °F 59% 30.38 in 10.0 mi SSW 15.0 mph 18.4 mph N/A   Clear
4:55 PM 32.5 °F 22.7 °F 20.7 °F 62% 30.38 in 10.0 mi SSW 13.8 mph 19.6 mph N/A   Clear
5:15 PM 32.0 °F 23.0 °F 20.8 °F 63% 30.38 in 10.0 mi SSW 11.5 mph - N/A   Clear
5:35 PM 31.8 °F 23.3 °F 20.3 °F 62% 30.37 in 10.0 mi South 10.4 mph - N/A   Clear
5:55 PM 31.1 °F 21.9 °F 20.7 °F 65% 30.36 in 10.0 mi South 11.5 mph - N/A   Clear
6:15 PM 31.1 °F 22.4 °F 20.5 °F 65% 30.36 in 10.0 mi South 10.4 mph - N/A   Clear
6:35 PM 30.7 °F 20.4 °F 20.3 °F 65% 30.36 in 10.0 mi SSW 13.8 mph - N/A   Clear
6:55 PM 30.9 °F 21.7 °F 19.6 °F 63% 30.34 in 10.0 mi South 11.5 mph - N/A   Clear
7:15 PM 31.1 °F 20.9 °F 19.2 °F 61% 30.33 in 10.0 mi South 13.8 mph - N/A   Clear
7:35 PM 31.1 °F 20.1 °F 18.9 °F 61% 30.33 in 10.0 mi SSW 16.1 mph 25.3 mph N/A   Clear
7:55 PM 31.1 °F 20.1 °F 18.9 °F 61% 30.32 in 10.0 mi SSW 16.1 mph - N/A   Clear
8:15 PM 31.1 °F 20.5 °F 19.0 °F 61% 30.32 in 10.0 mi SSW 15.0 mph 20.7 mph N/A   Clear
8:35 PM 30.9 °F 19.4 °F 18.9 °F 61% 30.32 in 10.0 mi SSW 17.3 mph 20.7 mph N/A   Clear
8:55 PM 30.4 °F 19.1 °F 18.9 °F 62% 30.31 in 10.0 mi SSW 16.1 mph 21.9 mph N/A   Clear
9:15 PM 30.2 °F 19.3 °F 18.9 °F 63% 30.30 in 10.0 mi SSW 15.0 mph - N/A   Clear
9:35 PM 30.2 °F 19.8 °F 18.7 °F 62% 30.29 in 10.0 mi SSW 13.8 mph - N/A   Clear
9:55 PM 30.0 °F 19.5 °F 18.5 °F 62% 30.28 in 10.0 mi SSW 13.8 mph 19.6 mph N/A   Clear
10:15 PM 29.8 °F 19.8 °F 18.9 °F 64% 30.28 in 10.0 mi SSW 12.7 mph 19.6 mph N/A   Clear
10:35 PM 29.8 °F 18.4 °F 19.0 °F 64% 30.27 in 10.0 mi SSW 16.1 mph - N/A   Clear
10:55 PM 30.0 °F 17.9 °F 19.0 °F 64% 30.27 in 10.0 mi SSW 18.4 mph 24.2 mph N/A   Clear
11:15 PM 30.2 °F 18.9 °F 19.2 °F 64% 30.27 in 10.0 mi SSW 16.1 mph 24.2 mph N/A   Clear
11:35 PM 30.0 °F 18.7 °F 19.0 °F 64% 30.26 in 10.0 mi SSW 16.1 mph 23.0 mph N/A   Clear
11:55 PM 29.7 °F 18.2 °F 19.4 °F 66% 30.26 in 10.0 mi SSW 16.1 mph 23.0 mph N/A   Clear